Pagina principale
METAR-TAF:

METAR-TAF

Aeroporti :

RAF Fairford

Fairford, Inghilterra

latitudine: 51-41N, longitudine: 001-47W, altezza: 87 m

Osservazione

Il bollettino è stato emesso 1 ora e 7 minuti fa, alle 17:56 UTC
Vento 15 kt da sud-ovest con raffiche fino a 21 kt
Temperature 7°C
Umidità 76%
Pressione 996 hPa
Visibilità 10 km o più
Nubi sparse ad un'altezza di 4200 ft
Nuvoloso ad un'altezza di 5000 ft

METAR: EGVA 161756Z AUTO 23015G21KT 9999 SCT042 BKN050 07/03 A2941 RMK AO2 SLP964 60010 T00710033 10079 20066 52028 $

Ora: 19:03 (19:03 UTC)


TAF: mancante

Osservazioni e previsioni meteorologiche di più di 4000 aeroporti (messaggi METAR e TAF).

Le stazioni disponibili sono rappresentate dai dischi gialli e rossi sulla carta.

Puntare il mouse per vedere il nome della stazione.

Clicca sopra per visualizzare le osservazioni e previsioni meteorologiche.

Per cambiare la mappa : fare clic sui pulsanti verdi con una croce nera per ingrandire, il pulsante verde con un trattino per diminuire, o sulla freccia verde per le mappe adiacenti.


METAR-TAF: